Time;durP1;ratioP1;P1;durP2;ratioP2;P2;SDS_P1;SDS_P2;PMS_P1;PMS_P2;Temp;Humidity;BMP_temperature;BMP_pressure;BME280_temperature;BME280_humidity;BME280_pressure;Samples;Min_cycle;Max_cycle;Signal;HPM_P1;HPM_P2
2021/07/28 00:01:20;;;;;;;1.90;1.77;;;20.10;98.00;;;;;;5091227;28;20487;-68
2021/07/28 00:03:47;;;;;;;1.67;1.53;;;20.10;98.00;;;;;;5091174;28;20494;-69
2021/07/28 00:06:24;;;;;;;2.30;1.90;;;20.00;98.00;;;;;;5091056;28;20455;-68
2021/07/28 00:08:52;;;;;;;1.97;1.60;;;19.80;98.00;;;;;;5091129;28;20491;-69
2021/07/28 00:11:20;;;;;;;2.07;1.50;;;19.70;98.00;;;;;;5073052;28;20464;-68
2021/07/28 00:13:47;;;;;;;1.50;1.50;;;19.60;98.00;;;;;;5091365;28;20946;-68
2021/07/28 00:16:15;;;;;;;1.93;1.60;;;19.70;98.00;;;;;;5090213;28;20628;-68
2021/07/28 00:18:51;;;;;;;1.50;1.47;;;19.60;98.00;;;;;;5091122;28;20523;-68
2021/07/28 00:24:05;;;;;;;1.70;1.47;;;19.70;98.00;;;;;;5091135;28;20479;-69
2021/07/28 00:26:32;;;;;;;2.40;1.50;;;19.60;98.00;;;;;;5090932;28;20525;-69
2021/07/28 00:28:59;;;;;;;2.40;1.63;;;19.60;98.00;;;;;;5091026;28;20456;-68
2021/07/28 00:31:26;;;;;;;1.90;1.50;;;19.70;98.00;;;;;;5091017;28;20456;-68
2021/07/28 00:33:53;;;;;;;1.63;1.63;;;19.70;98.00;;;;;;5090916;28;20452;-68
2021/07/28 00:36:20;;;;;;;2.20;1.63;;;19.70;98.00;;;;;;5090980;28;20460;-70
2021/07/28 00:38:47;;;;;;;2.40;1.70;;;19.70;98.00;;;;;;5091106;28;20552;-68
2021/07/28 00:41:16;;;;;;;2.43;1.70;;;19.70;98.00;;;;;;5090787;28;21034;-69
2021/07/28 00:43:43;;;;;;;2.50;1.70;;;19.90;98.00;;;;;;5072845;28;20559;-69
2021/07/28 00:46:13;;;;;;;2.90;2.20;;;19.90;98.00;;;;;;5090942;28;20513;-69
2021/07/28 00:48:40;;;;;;;1.93;1.67;;;19.90;98.00;;;;;;5090302;28;20510;-69
2021/07/28 00:51:07;;;;;;;2.33;1.60;;;20.00;98.00;;;;;;5090694;28;20505;-68
2021/07/28 00:53:35;;;;;;;2.20;2.00;;;19.90;98.00;;;;;;5072849;28;20495;-69
2021/07/28 00:56:02;;;;;;;1.63;1.60;;;19.80;98.00;;;;;;5090703;28;20515;-70
2021/07/28 00:58:31;;;;;;;2.10;1.40;;;19.70;98.00;;;;;;5090611;28;21049;-68
2021/07/28 01:01:00;;;;;;;3.00;1.70;;;19.60;98.00;;;;;;5090462;28;20491;-69
2021/07/28 01:03:27;;;;;;;1.43;1.43;;;19.70;98.00;;;;;;5090650;28;20518;-69
2021/07/28 01:05:57;;;;;;;1.90;1.50;;;19.80;98.00;;;;;;5090414;28;20618;-70
2021/07/28 01:08:25;;;;;;;2.40;1.83;;;19.80;98.00;;;;;;5090730;28;20884;-69
2021/07/28 01:10:52;;;;;;;2.33;1.80;;;19.90;98.00;;;;;;5072393;28;20875;-69
2021/07/28 01:13:26;;;;;;;1.60;1.37;;;19.90;98.00;;;;;;5090441;28;20509;-68
2021/07/28 01:16:03;;;;;;;1.83;1.50;;;20.00;98.00;;;;;;5072394;28;20458;-69
2021/07/28 01:18:31;;;;;;;1.87;1.70;;;19.80;98.00;;;;;;5090423;28;20464;-70
2021/07/28 01:20:58;;;;;;;2.07;1.87;;;19.80;98.00;;;;;;5090409;28;20893;-69
2021/07/28 01:23:28;;;;;;;1.87;1.50;;;19.80;98.00;;;;;;5090394;28;20475;-69
2021/07/28 01:25:56;;;;;;;2.33;1.73;;;19.60;98.00;;;;;;5090487;28;21045;-68
2021/07/28 01:28:26;;;;;;;2.40;1.90;;;19.50;98.00;;;;;;5093195;28;20456;-68
2021/07/28 01:31:01;;;;;;;1.70;1.60;;;19.50;98.00;;;;;;5094108;28;20451;-68
2021/07/28 01:33:30;;;;;;;2.53;2.20;;;19.40;98.00;;;;;;5076035;28;20447;-69
2021/07/28 01:35:58;;;;;;;4.07;1.90;;;19.30;98.00;;;;;;5094110;28;20465;-68
2021/07/28 01:38:27;;;;;;;1.63;1.50;;;19.30;98.00;;;;;;5094031;28;20463;-68
2021/07/28 01:40:55;;;;;;;2.60;1.97;;;19.40;98.00;;;;;;5094017;28;20494;-69
2021/07/28 01:43:22;;;;;;;2.90;1.77;;;19.40;98.00;;;;;;5093817;28;20479;-68
2021/07/28 01:45:50;;;;;;;2.03;1.70;;;19.50;98.00;;;;;;5094034;28;20973;-69
2021/07/28 01:48:17;;;;;;;1.53;1.43;;;19.70;98.00;;;;;;5094847;28;20545;-68
2021/07/28 01:50:45;;;;;;;1.50;1.50;;;19.70;98.00;;;;;;5094063;28;20460;-69
2021/07/28 01:53:13;;;;;;;1.70;1.43;;;19.70;98.00;;;;;;5093471;28;20551;-68
2021/07/28 01:55:42;;;;;;;2.20;1.50;;;19.70;98.00;;;;;;5093691;28;21035;-68
2021/07/28 01:58:09;;;;;;;1.60;1.57;;;19.70;98.00;;;;;;5093694;28;20452;-68
2021/07/28 02:00:36;;;;;;;1.93;1.50;;;19.70;98.00;;;;;;5075741;28;20528;-68
2021/07/28 02:03:05;;;;;;;2.07;1.90;;;19.80;98.00;;;;;;5093600;28;20489;-67
2021/07/28 02:05:33;;;;;;;2.67;2.00;;;19.60;98.00;;;;;;5093702;28;20514;-68
2021/07/28 02:08:03;;;;;;;2.00;1.60;;;19.70;98.00;;;;;;5093683;28;20452;-70
2021/07/28 02:10:31;;;;;;;1.60;1.40;;;19.80;98.00;;;;;;5093390;28;20818;-68
2021/07/28 02:13:01;;;;;;;6.30;1.87;;;19.70;98.00;;;;;;5093426;28;20455;-68
2021/07/28 02:15:30;;;;;;;1.30;1.30;;;19.60;98.00;;;;;;5093273;28;20546;-68
2021/07/28 02:17:57;;;;;;;1.50;1.30;;;19.50;98.00;;;;;;5093152;28;21026;-68
2021/07/28 02:20:25;;;;;;;1.77;1.70;;;19.40;98.00;;;;;;5092849;28;20468;-70
2021/07/28 02:22:53;;;;;;;1.43;1.43;;;19.50;98.00;;;;;;5092991;28;20499;-68
2021/07/28 02:25:21;;;;;;;1.90;1.83;;;19.50;98.00;;;;;;5092347;28;20572;-68
2021/07/28 02:27:48;;;;;;;1.47;1.43;;;19.40;98.00;;;;;;5093089;28;20452;-68
2021/07/28 02:30:18;;;;;;;1.60;1.50;;;19.40;98.00;;;;;;5092743;28;20448;-68
2021/07/28 02:32:45;;;;;;;1.40;1.40;;;19.40;98.00;;;;;;5075054;28;20479;-67
2021/07/28 02:35:14;;;;;;;2.00;1.67;;;19.50;98.00;;;;;;5092672;28;20478;-69
2021/07/28 02:37:42;;;;;;;1.77;1.40;;;19.50;98.00;;;;;;5092881;28;20448;-68
2021/07/28 02:40:11;;;;;;;2.33;1.40;;;19.30;98.00;;;;;;5092639;28;20448;-69
2021/07/28 02:42:38;;;;;;;1.70;1.63;;;19.10;98.00;;;;;;5092855;28;20464;-70
2021/07/28 02:45:08;;;;;;;1.77;1.40;;;19.00;98.00;;;;;;5092487;28;21087;-67
2021/07/28 02:47:36;;;;;;;2.07;1.67;;;19.00;98.00;;;;;;5092558;28;20452;-69
2021/07/28 02:50:05;;;;;;;1.30;1.30;;;18.90;98.00;;;;;;5092503;28;20492;-69
2021/07/28 02:52:33;;;;;;;1.83;1.20;;;18.90;98.00;;;;;;5092384;28;20549;-67
2021/07/28 02:55:04;;;;;;;1.90;1.53;;;18.90;98.00;;;;;;5092340;28;20478;-68
2021/07/28 02:57:32;;;;;;;2.30;2.00;;;18.90;98.00;;;;;;5092362;28;20479;-68
2021/07/28 02:59:58;;;;;;;1.50;1.40;;;18.90;98.00;;;;;;5092423;28;20513;-68
2021/07/28 03:02:26;;;;;;;1.83;1.63;;;18.90;98.00;;;;;;5092237;28;20564;-68
2021/07/28 03:04:54;;;;;;;1.73;1.40;;;18.90;98.00;;;;;;5092171;28;20906;-67
2021/07/28 03:07:21;;;;;;;1.70;1.70;;;18.90;98.00;;;;;;5092177;28;20517;-67
2021/07/28 03:09:48;;;;;;;1.87;1.60;;;19.10;98.00;;;;;;5092266;28;20460;-67
2021/07/28 03:12:15;;;;;;;1.90;1.60;;;19.10;98.00;;;;;;5091961;28;20560;-67
2021/07/28 03:14:42;;;;;;;1.60;1.53;;;19.10;98.00;;;;;;5092140;28;20487;-71
2021/07/28 03:17:10;;;;;;;1.70;1.50;;;19.00;98.00;;;;;;5091974;28;20490;-68
2021/07/28 03:19:37;;;;;;;1.60;1.60;;;18.90;98.00;;;;;;5091836;28;20496;-68
2021/07/28 03:22:05;;;;;;;6.10;2.13;;;19.00;98.00;;;;;;5092056;28;20699;-67
2021/07/28 03:24:33;;;;;;;7.80;1.60;;;19.00;98.00;;;;;;5092073;28;20516;-68
2021/07/28 03:27:00;;;;;;;2.93;1.60;;;18.80;98.00;;;;;;5092001;28;20542;-67
2021/07/28 03:29:27;;;;;;;3.70;2.00;;;18.80;98.00;;;;;;5074118;28;21098;-67
2021/07/28 03:31:55;;;;;;;1.73;1.60;;;18.90;98.00;;;;;;5073830;28;20448;-68
2021/07/28 03:34:21;;;;;;;1.60;1.37;;;18.80;98.00;;;;;;5091856;28;20448;-68
2021/07/28 03:36:49;;;;;;;1.50;1.40;;;18.80;98.00;;;;;;5091629;28;20947;-69
2021/07/28 03:39:18;;;;;;;1.70;1.40;;;18.80;98.00;;;;;;5091709;28;21007;-68
2021/07/28 03:41:45;;;;;;;1.87;1.70;;;18.80;98.00;;;;;;5091420;28;20510;-68
2021/07/28 03:44:27;;;;;;;1.77;1.70;;;18.70;98.00;;;;;;5091584;28;20479;-68
2021/07/28 03:46:54;;;;;;;1.90;1.80;;;18.70;98.00;;;;;;5091156;28;20464;-70
2021/07/28 03:49:21;;;;;;;2.70;1.50;;;18.70;98.00;;;;;;5091302;28;20456;-69
2021/07/28 03:51:48;;;;;;;1.53;1.50;;;18.80;98.00;;;;;;5072747;28;20455;-70
2021/07/28 03:54:15;;;;;;;1.50;1.50;;;19.00;98.00;;;;;;5091470;28;20488;-68
2021/07/28 03:56:43;;;;;;;2.17;2.07;;;18.90;98.00;;;;;;5091240;28;20452;-68
2021/07/28 03:59:10;;;;;;;2.07;1.50;;;18.90;98.00;;;;;;5091475;28;20513;-68
2021/07/28 04:01:38;;;;;;;1.50;1.40;;;19.00;98.00;;;;;;5091376;28;20456;-69
2021/07/28 04:04:05;;;;;;;1.63;1.57;;;19.10;98.00;;;;;;5091197;28;20538;-69
2021/07/28 04:06:32;;;;;;;1.90;1.20;;;18.90;98.00;;;;;;5091238;28;20950;-68
2021/07/28 04:08:59;;;;;;;1.30;1.30;;;18.90;98.00;;;;;;5091456;28;20882;-68
2021/07/28 04:11:28;;;;;;;1.80;1.70;;;18.80;98.00;;;;;;5091204;28;20500;-69
2021/07/28 04:13:56;;;;;;;1.30;1.30;;;18.90;98.00;;;;;;5091076;28;20824;-68
2021/07/28 04:16:28;;;;;;;1.70;1.43;;;18.90;98.00;;;;;;5091226;28;20527;-67
2021/07/28 04:18:55;;;;;;;1.60;1.50;;;18.90;98.00;;;;;;5091025;28;20451;-67
2021/07/28 04:21:22;;;;;;;1.60;1.40;;;18.90;98.00;;;;;;5091076;28;20472;-68
2021/07/28 04:23:50;;;;;;;1.93;1.53;;;19.00;98.00;;;;;;5090953;28;20949;-67
2021/07/28 04:26:19;;;;;;;3.43;1.30;;;19.20;98.00;;;;;;5090976;28;20452;-68
2021/07/28 04:28:46;;;;;;;2.17;1.50;;;19.30;98.00;;;;;;5091401;28;20520;-69
2021/07/28 04:31:14;;;;;;;2.90;1.50;;;19.50;98.00;;;;;;5091928;28;20487;-68
2021/07/28 04:33:42;;;;;;;1.90;1.73;;;19.40;98.00;;;;;;5091273;28;20520;-67
2021/07/28 04:36:09;;;;;;;1.70;1.40;;;19.30;98.00;;;;;;5091050;28;20487;-68
2021/07/28 04:38:36;;;;;;;1.50;1.37;;;19.20;98.00;;;;;;5073233;28;20452;-69
2021/07/28 04:41:04;;;;;;;1.67;1.57;;;19.30;98.00;;;;;;5091319;28;20874;-67
2021/07/28 04:43:32;;;;;;;1.80;1.60;;;19.20;98.00;;;;;;5091047;28;20491;-68
2021/07/28 04:46:02;;;;;;;1.43;1.40;;;19.30;98.00;;;;;;5073196;28;20516;-67
2021/07/28 04:48:31;;;;;;;1.97;1.40;;;19.30;98.00;;;;;;5090863;28;20518;-68
2021/07/28 04:50:59;;;;;;;1.40;1.30;;;19.30;98.00;;;;;;5090805;28;20919;-69
2021/07/28 04:53:28;;;;;;;1.70;1.70;;;19.30;98.00;;;;;;5090822;28;20452;-68
2021/07/28 04:55:56;;;;;;;1.60;1.30;;;19.30;98.00;;;;;;5090672;28;20463;-67
2021/07/28 04:58:24;;;;;;;1.40;1.40;;;19.30;98.00;;;;;;5090830;28;20549;-68
2021/07/28 05:00:52;;;;;;;2.47;2.07;;;19.30;98.00;;;;;;5090615;28;20460;-70
2021/07/28 05:03:20;;;;;;;1.53;1.50;;;19.40;98.00;;;;;;5075884;28;20541;-68
2021/07/28 05:05:48;;;;;;;1.67;1.67;;;19.50;98.00;;;;;;5094714;28;20492;-70
2021/07/28 05:08:16;;;;;;;2.03;1.67;;;19.40;98.00;;;;;;5094876;28;20460;-68
2021/07/28 05:10:43;;;;;;;1.73;1.50;;;19.40;98.00;;;;;;5094663;28;20516;-68
2021/07/28 05:13:11;;;;;;;2.97;1.67;;;19.40;98.00;;;;;;5094732;28;20505;-68
2021/07/28 05:15:38;;;;;;;1.73;1.43;;;19.50;98.00;;;;;;5094680;28;20520;-68
2021/07/28 05:18:06;;;;;;;2.00;1.80;;;19.60;98.00;;;;;;5095746;28;20487;-68
2021/07/28 05:20:33;;;;;;;2.33;2.07;;;19.80;98.00;;;;;;5076986;28;20493;-67
2021/07/28 05:23:01;;;;;;;4.37;2.30;;;19.90;98.00;;;;;;5095044;28;20490;-68
2021/07/28 05:25:29;;;;;;;2.30;1.50;;;19.90;98.00;;;;;;5094930;28;20484;-68
2021/07/28 05:27:56;;;;;;;3.63;1.67;;;19.90;98.00;;;;;;5094954;28;20516;-70
2021/07/28 05:30:23;;;;;;;1.63;1.50;;;19.80;98.00;;;;;;5094182;28;20456;-69
2021/07/28 05:32:50;;;;;;;1.90;1.60;;;19.70;98.00;;;;;;5094156;28;20630;-69
2021/07/28 05:35:17;;;;;;;1.80;1.70;;;19.60;98.00;;;;;;5094128;28;20455;-70
2021/07/28 05:37:46;;;;;;;1.67;1.50;;;19.50;98.00;;;;;;5093936;28;20456;-68
2021/07/28 05:40:15;;;;;;;1.80;1.70;;;19.50;98.00;;;;;;5093901;28;20459;-68
2021/07/28 05:42:42;;;;;;;1.60;1.47;;;19.50;98.00;;;;;;5093950;28;20484;-69
2021/07/28 05:45:11;;;;;;;3.53;1.63;;;19.50;98.00;;;;;;5059578;28;20837;-68
2021/07/28 05:47:38;;;;;;;1.93;1.70;;;19.50;98.00;;;;;;5075767;28;20963;-68
2021/07/28 05:50:06;;;;;;;1.97;1.57;;;19.50;98.00;;;;;;5093855;28;20477;-69
2021/07/28 05:52:33;;;;;;;1.30;1.20;;;19.50;98.00;;;;;;5075467;28;20452;-68
2021/07/28 05:54:59;;;;;;;1.53;1.50;;;19.70;98.00;;;;;;5093932;28;21124;-68
2021/07/28 05:57:29;;;;;;;2.87;1.77;;;19.70;98.00;;;;;;5093584;28;20553;-69
2021/07/28 05:59:56;;;;;;;3.43;1.60;;;19.60;98.00;;;;;;5093861;28;20487;-69
2021/07/28 06:02:24;;;;;;;2.20;1.70;;;19.70;98.00;;;;;;5075425;28;20543;-68
2021/07/28 06:04:51;;;;;;;2.10;1.87;;;19.80;98.00;;;;;;5093735;28;20479;-68
2021/07/28 06:07:18;;;;;;;1.60;1.50;;;19.90;98.00;;;;;;5093522;28;21027;-69
2021/07/28 06:09:45;;;;;;;2.20;1.70;;;19.90;98.00;;;;;;5093734;28;20475;-69
2021/07/28 06:12:16;;;;;;;2.00;1.50;;;19.90;98.00;;;;;;5093171;28;20456;-69
2021/07/28 06:14:48;;;;;;;1.70;1.50;;;19.90;98.00;;;;;;5093176;28;20807;-68
2021/07/28 06:17:14;;;;;;;1.83;1.70;;;20.00;98.00;;;;;;5093171;28;20452;-69
2021/07/28 06:19:43;;;;;;;2.53;1.70;;;19.90;98.00;;;;;;5093110;28;20500;-69
2021/07/28 06:22:10;;;;;;;2.50;2.10;;;19.80;98.00;;;;;;5075054;28;20979;-68
2021/07/28 06:24:37;;;;;;;3.00;2.27;;;19.90;98.00;;;;;;5092960;28;20456;-69
2021/07/28 06:27:04;;;;;;;5.00;2.13;;;19.90;98.00;;;;;;5093048;28;21000;-69
2021/07/28 06:29:32;;;;;;;1.93;1.70;;;20.00;98.00;;;;;;5092991;28;20452;-68
2021/07/28 06:32:00;;;;;;;2.10;1.93;;;20.10;98.00;;;;;;5092910;28;20524;-68
2021/07/28 06:34:28;;;;;;;2.40;2.13;;;20.10;98.00;;;;;;5092957;28;20884;-68
2021/07/28 06:36:55;;;;;;;1.73;1.57;;;20.10;98.00;;;;;;5092822;28;20485;-68
2021/07/28 06:39:22;;;;;;;2.60;1.60;;;20.00;98.00;;;;;;5092904;28;20758;-69
2021/07/28 06:41:49;;;;;;;2.53;1.93;;;20.10;98.00;;;;;;5092856;28;20692;-69
2021/07/28 06:44:16;;;;;;;2.27;2.10;;;20.10;98.00;;;;;;5092634;28;20455;-68
2021/07/28 06:46:43;;;;;;;3.20;1.57;;;20.10;98.00;;;;;;5092804;28;20885;-68
2021/07/28 06:49:11;;;;;;;2.40;1.60;;;20.10;98.00;;;;;;5092574;28;20513;-68
2021/07/28 06:51:42;;;;;;;1.83;1.60;;;20.00;98.00;;;;;;5092706;28;20516;-68
2021/07/28 06:54:09;;;;;;;2.87;2.30;;;20.00;98.00;;;;;;5074664;28;20620;-67
2021/07/28 06:56:37;;;;;;;1.83;1.57;;;20.10;98.00;;;;;;5092634;28;20605;-68
2021/07/28 06:59:04;;;;;;;2.90;1.90;;;20.10;98.00;;;;;;5092409;28;20458;-69
2021/07/28 07:01:32;;;;;;;1.87;1.77;;;20.20;98.00;;;;;;5092536;28;20460;-68
2021/07/28 07:03:59;;;;;;;2.53;2.27;;;20.30;98.00;;;;;;5092326;28;20462;-69
2021/07/28 07:06:27;;;;;;;2.50;1.60;;;20.30;98.00;;;;;;5074408;28;20520;-69
2021/07/28 07:08:54;;;;;;;1.37;1.30;;;20.30;98.00;;;;;;5092308;28;20448;-69
2021/07/28 07:11:21;;;;;;;3.20;2.30;;;20.20;98.00;;;;;;5092404;28;20466;-68
2021/07/28 07:13:50;;;;;;;2.17;1.73;;;20.10;98.00;;;;;;5092116;28;20552;-67
2021/07/28 07:16:17;;;;;;;1.97;1.80;;;20.20;98.00;;;;;;5092188;28;20452;-69
2021/07/28 07:18:44;;;;;;;2.37;2.17;;;20.20;98.00;;;;;;5092258;28;20460;-69
2021/07/28 07:21:11;;;;;;;1.50;1.50;;;20.20;98.00;;;;;;5091995;28;20485;-69
2021/07/28 07:23:39;;;;;;;1.80;1.70;;;20.10;98.00;;;;;;5092197;28;20464;-69
2021/07/28 07:26:07;;;;;;;1.80;1.70;;;19.90;98.00;;;;;;5091749;28;20482;-69
2021/07/28 07:28:35;;;;;;;2.30;1.83;;;19.90;98.00;;;;;;5092149;28;20545;-69
2021/07/28 07:31:02;;;;;;;2.03;1.60;;;19.80;98.00;;;;;;5091815;28;20784;-68
2021/07/28 07:33:38;;;;;;;2.53;1.83;;;19.80;98.00;;;;;;5091825;28;20459;-68
2021/07/28 07:36:07;;;;;;;2.60;1.50;;;20.00;98.00;;;;;;5091884;28;20455;-68
2021/07/28 07:38:34;;;;;;;2.60;1.60;;;19.90;98.00;;;;;;5091112;28;20456;-69
2021/07/28 07:41:02;;;;;;;1.80;1.43;;;19.90;98.00;;;;;;5087401;28;20544;-68
2021/07/28 07:43:29;;;;;;;1.80;1.67;;;20.00;98.00;;;;;;5088698;28;20464;-67
2021/07/28 07:45:56;;;;;;;1.93;1.50;;;20.00;98.00;;;;;;5088642;28;20607;-68
2021/07/28 07:48:24;;;;;;;1.60;1.20;;;20.00;98.00;;;;;;5088546;28;20945;-69
2021/07/28 07:50:51;;;;;;;1.70;1.63;;;20.10;98.00;;;;;;5086785;28;20460;-69
2021/07/28 07:53:18;;;;;;;1.70;1.60;;;20.20;98.00;;;;;;5088754;28;20934;-68
2021/07/28 07:55:45;;;;;;;1.67;1.30;;;20.20;98.00;;;;;;5088135;28;20854;-69
2021/07/28 07:58:14;;;;;;;1.50;1.40;;;20.20;98.00;;;;;;5088211;28;20452;-68
2021/07/28 08:00:41;;;;;;;1.47;1.40;;;20.00;98.00;;;;;;5088000;28;20448;-67
2021/07/28 08:03:08;;;;;;;1.60;1.33;;;20.00;98.00;;;;;;5088321;28;20481;-69
2021/07/28 08:05:35;;;;;;;1.73;1.43;;;20.00;98.00;;;;;;5088580;28;20484;-67
2021/07/28 08:08:02;;;;;;;1.27;1.13;;;20.10;98.00;;;;;;5088213;28;20825;-70
2021/07/28 08:10:33;;;;;;;1.80;1.70;;;20.20;98.00;;;;;;5088341;28;20949;-68
2021/07/28 08:13:00;;;;;;;1.60;1.33;;;20.10;98.00;;;;;;5088367;28;20459;-69
2021/07/28 08:15:29;;;;;;;1.30;1.23;;;20.00;98.00;;;;;;5088369;28;20503;-69
2021/07/28 08:17:56;;;;;;;2.20;1.63;;;19.90;98.00;;;;;;5087986;28;20592;-69
2021/07/28 08:20:24;;;;;;;1.93;1.40;;;19.90;98.00;;;;;;5088522;28;20853;-68
2021/07/28 08:22:51;;;;;;;2.07;1.73;;;19.80;98.00;;;;;;5087860;28;20860;-68
2021/07/28 08:25:19;;;;;;;1.93;1.47;;;19.70;98.00;;;;;;5088037;28;20452;-68
2021/07/28 08:27:48;;;;;;;1.73;1.40;;;19.90;98.00;;;;;;5087741;28;20490;-70
2021/07/28 08:30:16;;;;;;;1.73;1.60;;;19.90;98.00;;;;;;5088228;28;20456;-68
2021/07/28 08:32:44;;;;;;;1.50;1.40;;;19.90;98.00;;;;;;5070006;28;20962;-68
2021/07/28 08:35:11;;;;;;;1.37;1.30;;;19.90;98.00;;;;;;5087992;28;20483;-68
2021/07/28 08:37:40;;;;;;;1.20;1.10;;;19.80;98.00;;;;;;5091435;28;20529;-68
2021/07/28 08:40:12;;;;;;;1.80;1.60;;;19.80;98.00;;;;;;5091477;28;21017;-69
2021/07/28 08:42:41;;;;;;;1.30;1.13;;;19.80;98.00;;;;;;5092384;28;20516;-68
2021/07/28 08:45:09;;;;;;;1.67;1.20;;;19.80;98.00;;;;;;5092402;28;20580;-70
2021/07/28 08:47:38;;;;;;;1.30;1.23;;;19.70;98.00;;;;;;5091752;28;20500;-69
2021/07/28 08:50:07;;;;;;;2.10;1.60;;;19.80;98.00;;;;;;5094623;28;20455;-68
2021/07/28 08:52:35;;;;;;;4.40;1.33;;;19.70;98.00;;;;;;5094681;28;20590;-70
2021/07/28 08:55:02;;;;;;;1.30;1.27;;;19.60;98.00;;;;;;5094788;28;20447;-68
2021/07/28 08:57:31;;;;;;;1.97;1.57;;;19.60;98.00;;;;;;5093991;28;20501;-69
2021/07/28 08:59:58;;;;;;;2.17;1.70;;;19.50;98.00;;;;;;5094039;28;20440;-69
2021/07/28 09:02:25;;;;;;;1.40;1.37;;;19.60;98.00;;;;;;5076766;28;20452;-68
2021/07/28 09:04:53;;;;;;;1.30;1.20;;;19.50;98.00;;;;;;5094735;28;20459;-68
2021/07/28 09:07:22;;;;;;;1.40;1.30;;;19.60;98.00;;;;;;5076582;28;20479;-68
2021/07/28 09:09:59;;;;;;;1.30;1.30;;;19.70;98.00;;;;;;5094588;28;20961;-68
2021/07/28 09:12:36;;;;;;;1.70;1.57;;;19.80;98.00;;;;;;5093279;28;20451;-69
2021/07/28 09:15:08;;;;;;;3.00;1.73;;;20.00;98.00;;;;;;5094711;28;20640;-69
2021/07/28 09:17:37;;;;;;;1.30;1.20;;;20.10;98.00;;;;;;5094436;28;20456;-69
2021/07/28 09:20:06;;;;;;;1.60;1.40;;;20.10;98.00;;;;;;5094240;28;20464;-68
2021/07/28 09:22:38;;;;;;;2.50;1.90;;;20.20;98.00;;;;;;5094297;28;20517;-68
2021/07/28 09:25:19;;;;;;;1.20;1.20;;;20.40;98.00;;;;;;5094424;28;20460;-68
2021/07/28 09:27:48;;;;;;;1.50;1.50;;;20.40;98.00;;;;;;5094130;28;20988;-69
2021/07/28 09:30:17;;;;;;;1.50;1.50;;;20.50;98.00;;;;;;5094256;28;20458;-69
2021/07/28 09:33:03;;;;;;;2.40;1.70;;;20.50;98.00;;;;;;5094117;28;20513;-69
2021/07/28 09:36:07;;;;;;;1.30;1.30;;;20.50;98.00;;;;;;5094429;28;20458;-70
2021/07/28 09:38:37;;;;;;;1.50;1.40;;;20.90;98.00;;;;;;5094609;28;20454;-69
2021/07/28 09:41:22;;;;;;;1.33;1.33;;;21.20;98.00;;;;;;5094777;28;20455;-70
2021/07/28 09:43:52;;;;;;;1.70;1.60;;;21.60;98.00;;;;;;5094656;28;20481;-71
2021/07/28 09:46:37;;;;;;;1.70;1.57;;;22.00;98.00;;;;;;5094488;28;20549;-70
2021/07/28 09:49:05;;;;;;;1.60;1.47;;;22.30;98.00;;;;;;5091203;28;20465;-70
2021/07/28 09:51:34;;;;;;;1.30;1.30;;;22.50;98.00;;;;;;5094020;28;20491;-69
2021/07/28 09:54:14;;;;;;;1.20;1.20;;;22.70;98.00;;;;;;5094733;28;21000;-68
2021/07/28 09:56:46;;;;;;;1.50;1.40;;;22.80;98.00;;;;;;5094209;28;20459;-69
2021/07/28 09:59:16;;;;;;;1.40;1.10;;;22.60;98.00;;;;;;5094353;28;20455;-68
2021/07/28 10:01:44;;;;;;;1.57;1.53;;;22.40;98.00;;;;;;5094266;28;20543;-69
2021/07/28 10:04:14;;;;;;;1.30;1.23;;;22.00;98.00;;;;;;5094191;28;21017;-69
2021/07/28 10:06:43;;;;;;;1.20;1.10;;;21.70;98.00;;;;;;5093863;28;20487;-69
2021/07/28 10:09:13;;;;;;;1.20;1.20;;;21.70;98.00;;;;;;5094241;28;20460;-70
2021/07/28 10:11:41;;;;;;;1.50;1.20;;;21.80;98.00;;;;;;5094115;28;20451;-68
2021/07/28 10:14:10;;;;;;;1.30;1.20;;;21.80;98.00;;;;;;5092686;28;20543;-68
2021/07/28 10:16:37;;;;;;;1.57;1.37;;;21.70;98.00;;;;;;5094015;28;20455;-69
2021/07/28 10:19:05;;;;;;;2.27;1.20;;;21.60;98.00;;;;;;5094051;28;20957;-69
2021/07/28 10:21:34;;;;;;;1.77;1.57;;;21.70;98.00;;;;;;5093747;28;20844;-68
2021/07/28 10:24:02;;;;;;;1.50;1.23;;;21.70;98.00;;;;;;5093957;28;20483;-68
2021/07/28 10:26:34;;;;;;;1.50;1.30;;;21.60;98.00;;;;;;5093801;28;20516;-69
2021/07/28 10:29:01;;;;;;;1.53;1.27;;;21.80;98.00;;;;;;5093757;28;20509;-69
2021/07/28 10:31:43;;;;;;;1.63;1.50;;;21.90;98.00;;;;;;5093581;28;20488;-69
2021/07/28 10:34:22;;;;;;;1.47;1.43;;;22.00;98.00;;;;;;5093654;28;20456;-69
2021/07/28 10:36:50;;;;;;;1.50;1.30;;;22.20;98.00;;;;;;5093523;28;20462;-68
2021/07/28 10:39:38;;;;;;;1.30;1.20;;;22.40;98.00;;;;;;5092385;28;20475;-68
2021/07/28 10:42:08;;;;;;;1.43;1.30;;;22.40;98.00;;;;;;5093780;28;20505;-69
2021/07/28 10:45:00;;;;;;;1.70;1.50;;;22.50;98.00;;;;;;5075625;28;20447;-68
2021/07/28 10:47:37;;;;;;;1.97;1.43;;;22.60;98.00;;;;;;5093248;28;20483;-68
2021/07/28 10:50:05;;;;;;;1.30;1.20;;;22.80;98.00;;;;;;5093394;28;20875;-69
2021/07/28 10:52:41;;;;;;;1.50;1.50;;;22.70;98.00;;;;;;5093166;28;20456;-69
2021/07/28 10:55:19;;;;;;;1.20;1.10;;;22.70;98.00;;;;;;5093429;28;20462;-70
2021/07/28 10:58:20;;;;;;;1.93;1.50;;;22.70;98.00;;;;;;5093491;28;20448;-70
2021/07/28 11:00:50;;;;;;;1.50;1.17;;;22.80;98.00;;;;;;5092225;28;20456;-68
2021/07/28 11:03:19;;;;;;;1.57;1.30;;;22.70;98.00;;;;;;5093174;28;20459;-68
2021/07/28 11:05:52;;;;;;;2.00;1.60;;;22.60;98.00;;;;;;5075717;28;20456;-69
2021/07/28 11:08:21;;;;;;;1.90;1.50;;;22.60;98.00;;;;;;5093407;28;21010;-68
2021/07/28 11:10:54;;;;;;;1.40;1.30;;;22.60;98.00;;;;;;5069626;28;20489;-69
2021/07/28 11:13:25;;;;;;;1.73;1.33;;;22.50;98.00;;;;;;5089143;28;20551;-69
2021/07/28 11:15:56;;;;;;;2.23;1.67;;;22.60;98.00;;;;;;5089940;28;20575;-71
2021/07/28 11:18:34;;;;;;;1.30;1.17;;;22.60;98.00;;;;;;5089921;28;20456;-67
2021/07/28 11:21:12;;;;;;;1.30;1.10;;;22.40;98.00;;;;;;5089646;28;20491;-69
2021/07/28 11:23:48;;;;;;;1.40;1.37;;;22.50;98.00;;;;;;5090059;28;20513;-69
2021/07/28 11:26:23;;;;;;;1.87;1.37;;;22.60;98.00;;;;;;5081722;28;20460;-69
2021/07/28 11:28:52;;;;;;;3.40;1.70;;;22.80;98.00;;;;;;5089232;28;20467;-69
2021/07/28 11:31:31;;;;;;;1.37;1.30;;;22.90;98.00;;;;;;5089582;28;20460;-69
2021/07/28 11:34:10;;;;;;;1.30;1.23;;;22.90;98.00;;;;;;5071807;28;20459;-68
2021/07/28 11:36:38;;;;;;;1.63;1.57;;;23.10;98.00;;;;;;5089919;28;20940;-68
2021/07/28 11:39:17;;;;;;;1.83;1.43;;;23.20;98.00;;;;;;5071350;28;20483;-69
2021/07/28 11:41:46;;;;;;;1.20;1.17;;;23.40;98.00;;;;;;5089699;28;20967;-69
2021/07/28 11:44:14;;;;;;;1.60;1.50;;;23.30;98.00;;;;;;5089436;28;20459;-67
2021/07/28 11:46:51;;;;;;;1.93;1.63;;;23.40;98.00;;;;;;5089327;28;21009;-69
2021/07/28 11:49:18;;;;;;;1.63;1.40;;;23.40;98.00;;;;;;5087005;28;20466;-71
2021/07/28 11:51:45;;;;;;;1.70;1.33;;;23.40;98.00;;;;;;5089289;28;20853;-69
2021/07/28 11:54:14;;;;;;;2.33;1.20;;;23.30;98.00;;;;;;5089639;28;20513;-70
2021/07/28 11:56:52;;;;;;;1.43;1.30;;;23.40;98.00;;;;;;5089150;28;20459;-68
2021/07/28 11:59:26;;;;;;;1.30;1.20;;;23.60;98.00;;;;;;5088964;28;20498;-68
2021/07/28 12:01:56;;;;;;;1.53;1.40;;;24.00;97.50;;;;;;5089347;28;20451;-70
2021/07/28 12:04:25;;;;;;;1.63;1.43;;;24.50;98.00;;;;;;5089442;28;20463;-68
2021/07/28 12:06:53;;;;;;;1.30;1.10;;;24.90;97.00;;;;;;5089200;28;20511;-71
2021/07/28 12:09:24;;;;;;;1.90;1.80;;;25.10;92.80;;;;;;5070413;28;20557;-69
2021/07/28 12:11:57;;;;;;;1.80;1.30;;;25.40;93.60;;;;;;5088665;28;20444;-69
2021/07/28 12:14:26;;;;;;;1.63;1.63;;;25.50;94.10;;;;;;5080145;28;20543;-70
2021/07/28 12:16:57;;;;;;;1.53;1.47;;;25.30;94.50;;;;;;5089003;28;20468;-69
2021/07/28 12:19:26;;;;;;;1.97;1.80;;;25.40;95.60;;;;;;5088705;28;20452;-70
2021/07/28 12:22:00;;;;;;;1.60;1.40;;;25.30;90.80;;;;;;5089198;28;20794;-69
2021/07/28 12:24:34;;;;;;;1.30;1.30;;;25.50;94.60;;;;;;5088250;28;20544;-68
2021/07/28 12:27:31;;;;;;;2.50;1.50;;;25.90;93.30;;;;;;5088861;28;20491;-68
2021/07/28 12:29:59;;;;;;;1.53;1.47;;;26.00;90.80;;;;;;5089947;28;20480;-69
2021/07/28 12:32:37;;;;;;;1.63;1.50;;;26.40;90.30;;;;;;5092020;28;20508;-69
2021/07/28 12:35:27;;;;;;;1.33;1.27;;;26.40;88.00;;;;;;5091671;28;20456;-69
2021/07/28 12:38:12;;;;;;;1.20;1.20;;;26.40;88.90;;;;;;5091842;28;20531;-69
2021/07/28 12:40:42;;;;;;;1.80;1.50;;;26.70;88.90;;;;;;5091686;28;20509;-69
2021/07/28 12:43:11;;;;;;;1.87;1.60;;;27.00;88.90;;;;;;5091311;28;20552;-70
2021/07/28 12:45:40;;;;;;;1.90;1.50;;;27.30;88.60;;;;;;5091394;28;20539;-69
2021/07/28 12:48:10;;;;;;;1.50;1.40;;;27.50;85.50;;;;;;5073499;28;20487;-68
2021/07/28 12:50:39;;;;;;;2.60;1.87;;;27.70;87.40;;;;;;5090548;28;20460;-68
2021/07/28 12:53:06;;;;;;;2.00;1.60;;;27.60;85.40;;;;;;5072787;28;20897;-68
2021/07/28 12:55:37;;;;;;;1.50;1.50;;;27.40;86.70;;;;;;5090752;28;20456;-68
2021/07/28 12:58:04;;;;;;;2.23;1.53;;;27.10;88.10;;;;;;5090826;28;20458;-68
2021/07/28 13:00:33;;;;;;;2.13;1.73;;;26.90;87.80;;;;;;5090731;28;20484;-69
2021/07/28 13:03:00;;;;;;;2.43;2.30;;;26.90;87.40;;;;;;5090650;28;20451;-71